createdAt,value
2022-10-18T04:02:07.770Z,100662.66
2022-10-18T04:06:10.397Z,100664.34
2022-10-18T04:10:12.994Z,100660.53
2022-10-18T04:14:15.773Z,100652.09
2022-10-18T04:18:19.700Z,100655.53
2022-10-18T04:22:22.338Z,100644.44
2022-10-18T04:26:25.026Z,100647.63
2022-10-18T04:30:27.651Z,100648.25
2022-10-18T04:34:31.661Z,100646.94
2022-10-18T04:38:34.426Z,100646.94
2022-10-18T04:42:37.022Z,100663.97
2022-10-18T04:46:39.672Z,100664.19
2022-10-18T04:50:43.659Z,100669.09
2022-10-18T04:54:50.016Z,100661.22
2022-10-18T04:58:52.603Z,100663.34
2022-10-18T05:02:57.756Z,100670.03
2022-10-18T05:07:02.773Z,100665.22
2022-10-18T05:11:05.635Z,100672.84
2022-10-18T05:15:08.967Z,100675.59
2022-10-18T05:19:11.553Z,100675.16
2022-10-18T05:23:15.521Z,100664.06
2022-10-18T05:27:18.141Z,100666.78
2022-10-18T05:31:21.267Z,100677.59
2022-10-18T05:35:23.889Z,100688.09
2022-10-18T05:39:27.891Z,100688.16
2022-10-18T05:43:30.675Z,100687.25
2022-10-18T05:47:33.267Z,100683.06
2022-10-18T05:51:35.853Z,100689.84
2022-10-18T05:55:39.877Z,100684.13
2022-10-18T05:59:42.497Z,100692.16
2022-10-18T06:03:48.192Z,100686.09
2022-10-18T06:07:50.767Z,100691.13
2022-10-18T06:11:55.407Z,100688.09
2022-10-18T06:15:58.393Z,100674.41
2022-10-18T06:20:00.975Z,100670.09
2022-10-18T06:24:03.635Z,100674.97
2022-10-18T06:28:10.141Z,100684.00
2022-10-18T06:32:15.013Z,100676.50
2022-10-18T06:36:19.567Z,100675.47
2022-10-18T06:40:22.202Z,100677.66
2022-10-18T06:44:26.278Z,100679.41
2022-10-18T06:48:28.889Z,100689.59
2022-10-18T06:52:31.876Z,100694.25
2022-10-18T06:56:35.295Z,100694.81
2022-10-18T07:00:39.295Z,100704.00
2022-10-18T07:04:43.173Z,100699.91
2022-10-18T07:08:46.385Z,100702.19
2022-10-18T07:12:59.182Z,100703.19
2022-10-18T07:17:11.880Z,100705.28
2022-10-18T07:21:16.518Z,100700.13
2022-10-18T07:25:19.247Z,100693.38
2022-10-18T07:29:21.882Z,100697.91
2022-10-18T07:33:25.893Z,100698.78
2022-10-18T07:37:30.147Z,100698.97
2022-10-18T07:41:33.897Z,100708.38
2022-10-18T07:49:41.581Z,100726.47
2022-10-18T07:53:44.205Z,100730.66
2022-10-18T07:57:46.777Z,100731.13
2022-10-18T08:01:49.411Z,100739.22
2022-10-18T08:05:54.626Z,100733.00
2022-10-18T08:09:57.241Z,100721.72
2022-10-18T08:13:59.856Z,100722.81
2022-10-18T08:18:02.455Z,100731.03
2022-10-18T08:22:06.421Z,100729.31
2022-10-18T08:26:11.786Z,100722.50
2022-10-18T08:30:14.581Z,100723.56
2022-10-18T08:34:19.700Z,100710.09
2022-10-18T08:38:24.366Z,100714.78
2022-10-18T08:42:41.856Z,100722.56
2022-10-18T08:46:47.147Z,100729.28
2022-10-18T08:50:51.908Z,100731.69
2022-10-18T08:55:02.032Z,100737.09
2022-10-18T08:59:05.020Z,100748.78
2022-10-18T09:03:30.727Z,100759.16
2022-10-18T09:07:51.499Z,100761.78
2022-10-18T09:12:09.830Z,100765.31
2022-10-18T09:16:17.455Z,100755.59
2022-10-18T09:20:24.387Z,100758.09
2022-10-18T09:24:31.832Z,100750.75
2022-10-18T09:28:46.157Z,100758.00
2022-10-18T09:32:57.663Z,100751.91
2022-10-18T09:37:00.904Z,100767.41
2022-10-18T09:41:06.556Z,100782.69
2022-10-18T09:45:27.784Z,100771.09
2022-10-18T09:49:33.663Z,100766.47
2022-10-18T09:53:44.309Z,100774.22
2022-10-18T09:57:51.319Z,100773.09
2022-10-18T10:01:55.589Z,100769.41
2022-10-18T10:06:17.639Z,100769.75
2022-10-18T10:10:22.698Z,100773.69
2022-10-18T10:14:27.364Z,100769.59
2022-10-18T10:18:34.296Z,100771.13
2022-10-18T10:22:39.391Z,100779.06
2022-10-18T10:26:42.105Z,100782.19
2022-10-18T10:30:44.805Z,100775.81
2022-10-18T10:34:50.892Z,100780.63
2022-10-18T10:39:05.386Z,100775.03
2022-10-18T10:43:36.386Z,100779.31
2022-10-18T10:47:41.136Z,100781.59
2022-10-18T10:51:50.570Z,100775.75
2022-10-18T10:56:01.381Z,100774.81
2022-10-18T11:00:05.343Z,100779.81
2022-10-18T11:04:27.637Z,100787.66
2022-10-18T11:08:36.774Z,100785.88
2022-10-18T11:12:42.565Z,100776.09
2022-10-18T11:16:55.429Z,100775.66
2022-10-18T11:21:07.764Z,100775.50
2022-10-18T11:25:15.590Z,100771.75
2022-10-18T11:29:33.355Z,100769.03
2022-10-18T11:34:08.112Z,100769.47
2022-10-18T11:38:22.382Z,100773.00
2022-10-18T11:42:39.064Z,100773.41
2022-10-18T11:46:55.594Z,100777.69
2022-10-18T11:51:05.926Z,100779.44
2022-10-18T11:55:37.283Z,100770.97
2022-10-18T11:59:53.247Z,100773.34
2022-10-18T12:04:03.678Z,100777.88
2022-10-18T12:08:11.402Z,100769.44
2022-10-18T12:12:18.970Z,100771.53
2022-10-18T12:16:39.242Z,100760.53
2022-10-18T12:20:50.261Z,100759.97
2022-10-18T12:24:53.162Z,100749.81
2022-10-18T12:29:02.951Z,100761.09
2022-10-18T12:33:27.180Z,100753.09
2022-10-18T12:37:58.666Z,100757.44
2022-10-18T12:42:01.432Z,100754.69
2022-10-18T12:46:12.184Z,100757.59
2022-10-18T12:50:30.455Z,100747.13
2022-10-18T12:54:35.449Z,100748.00
2022-10-18T12:58:38.051Z,100749.00
2022-10-18T13:02:40.670Z,100744.75
2022-10-18T13:07:21.157Z,100732.78
2022-10-18T13:11:44.582Z,100734.81
2022-10-18T13:15:54.766Z,100727.03
2022-10-18T13:20:25.689Z,100725.03
2022-10-18T13:24:36.763Z,100732.53
2022-10-18T13:28:47.040Z,100731.31
2022-10-18T13:32:57.618Z,100736.94
2022-10-18T13:37:02.251Z,100743.34
2022-10-18T13:41:09.035Z,100745.03
2022-10-18T13:45:55.508Z,100747.84
2022-10-18T13:50:09.995Z,100745.78
2022-10-18T13:54:28.743Z,100748.28
2022-10-18T13:58:53.814Z,100749.00
2022-10-18T14:08:05.674Z,100743.09
2022-10-18T14:12:15.520Z,100756.28
2022-10-18T14:16:30.829Z,100749.97
2022-10-18T14:20:49.399Z,100752.78
2022-10-18T14:24:59.995Z,100749.38
2022-10-18T14:29:05.865Z,100759.28
2022-10-18T14:33:26.453Z,100762.84
2022-10-18T14:37:34.358Z,100768.38
2022-10-18T14:41:38.600Z,100762.22
2022-10-18T14:45:42.467Z,100767.59
2022-10-18T14:49:47.855Z,100760.97
2022-10-18T14:53:51.648Z,100772.63
2022-10-18T14:57:54.437Z,100771.63
2022-10-18T15:02:00.851Z,100773.47
2022-10-18T15:06:08.415Z,100777.34
2022-10-18T15:10:17.396Z,100765.94
2022-10-18T15:14:21.382Z,100772.34
2022-10-18T15:18:26.046Z,100769.78
2022-10-18T15:22:32.674Z,100775.22
2022-10-18T15:26:35.733Z,100783.66
2022-10-18T15:30:42.855Z,100779.41
2022-10-18T15:34:45.931Z,100784.63
2022-10-18T15:38:50.203Z,100784.75
2022-10-18T15:42:54.900Z,100788.91
2022-10-18T15:47:20.133Z,100790.06
2022-10-18T15:51:48.827Z,100798.19
2022-10-18T15:55:55.454Z,100795.34
2022-10-18T16:00:01.884Z,100805.53
2022-10-18T16:04:19.491Z,100801.56
2022-10-18T16:08:24.431Z,100801.25
2022-10-18T16:12:28.359Z,100804.81
2022-10-18T16:16:31.107Z,100807.06
2022-10-18T16:20:33.712Z,100809.63
2022-10-18T16:24:36.282Z,100812.09
2022-10-18T16:28:40.845Z,100806.34
2022-10-18T16:32:43.451Z,100814.25
2022-10-18T16:36:46.169Z,100822.78
2022-10-18T16:40:48.770Z,100818.69
2022-10-18T16:44:54.873Z,100818.31
2022-10-18T16:48:58.173Z,100828.28
2022-10-18T16:53:00.616Z,100837.38
2022-10-18T16:57:03.213Z,100840.19
2022-10-18T17:01:08.987Z,100849.25
2022-10-18T17:05:11.839Z,100853.44
2022-10-18T17:09:16.018Z,100860.56
2022-10-18T17:13:18.634Z,100863.31
2022-10-18T17:17:22.591Z,100864.53
2022-10-18T17:21:26.329Z,100868.91
2022-10-18T17:29:36.477Z,100866.09
2022-10-18T17:33:40.399Z,100869.84
2022-10-18T17:37:45.411Z,100877.91
2022-10-18T17:41:48.764Z,100878.56
2022-10-18T17:45:55.491Z,100886.81
2022-10-18T17:49:59.955Z,100886.16
2022-10-18T17:54:03.148Z,100880.75
2022-10-18T17:58:07.086Z,100895.09
2022-10-18T18:02:11.655Z,100894.56
2022-10-18T18:06:18.178Z,100886.84
2022-10-18T18:10:20.976Z,100896.53
2022-10-18T18:14:23.779Z,100898.75
2022-10-18T18:18:26.378Z,100903.50
2022-10-18T18:22:30.607Z,100906.16
2022-10-18T18:26:34.559Z,100902.53
2022-10-18T18:30:40.735Z,100914.81
2022-10-18T18:34:43.387Z,100914.19
2022-10-18T18:38:47.548Z,100918.50
2022-10-18T18:43:07.164Z,100912.81
2022-10-18T18:47:13.461Z,100901.91
2022-10-18T18:51:18.348Z,100912.53
2022-10-18T18:55:22.417Z,100917.31
2022-10-18T18:59:26.204Z,100915.97
2022-10-18T19:03:28.811Z,100926.38
2022-10-18T19:07:32.379Z,100923.69
2022-10-18T19:11:39.598Z,100908.66
2022-10-18T19:15:42.260Z,100913.50
2022-10-18T19:19:45.517Z,100917.53
2022-10-18T19:23:48.223Z,100923.31
2022-10-18T19:27:52.343Z,100925.53
2022-10-18T19:31:57.334Z,100925.06
2022-10-18T19:35:59.932Z,100913.41
2022-10-18T19:40:02.850Z,100910.97
2022-10-18T19:44:07.566Z,100925.88
2022-10-18T19:48:12.427Z,100926.84
2022-10-18T19:52:16.181Z,100935.44
2022-10-18T19:56:20.893Z,100922.84
2022-10-18T20:00:24.830Z,100924.34
2022-10-18T20:04:27.447Z,100939.41
2022-10-18T20:08:32.940Z,100951.97
2022-10-18T20:12:36.445Z,100944.97
2022-10-18T20:16:40.388Z,100949.69
2022-10-18T20:20:47.236Z,100947.41
2022-10-18T20:24:50.855Z,100949.94
2022-10-18T20:28:57.523Z,100949.44
2022-10-18T20:33:01.634Z,100962.66
2022-10-18T20:37:04.240Z,100956.41
2022-10-18T20:41:08.343Z,100958.81
2022-10-18T20:45:12.361Z,100967.31
2022-10-18T20:49:17.409Z,100968.91
2022-10-18T20:53:20.266Z,100961.53
2022-10-18T20:57:22.862Z,100972.47
